Time;durP1;ratioP1;P1;durP2;ratioP2;P2;SDS_P1;SDS_P2;PMS_P1;PMS_P2;Temp;Humidity;BMP_temperature;BMP_pressure;BME280_temperature;BME280_humidity;BME280_pressure;Samples;Min_cycle;Max_cycle;Signal;HPM_P1;HPM_P2
2022/07/28 00:01:11;0.00;0.00;0.62;0.00;0.00;0.62;1.67;1.07;;;26.60;24.50;;;;;;2225746;62;20429;-61
2022/07/28 00:03:58;0.00;0.00;0.62;0.00;0.00;0.62;1.73;1.03;;;26.60;24.50;;;;;;2225977;62;20393;-62
2022/07/28 00:06:42;0.00;0.00;0.62;0.00;0.00;0.62;2.17;1.10;;;26.60;24.50;;;;;;2225860;62;20746;-60
2022/07/28 00:09:28;0.00;0.00;0.62;0.00;0.00;0.62;2.77;1.33;;;26.60;24.50;;;;;;2225457;62;20630;-62
2022/07/28 00:12:12;0.00;0.00;0.62;0.00;0.00;0.62;2.20;1.40;;;26.60;24.50;;;;;;2222142;62;20380;-61
2022/07/28 00:14:57;0.00;0.00;0.62;0.00;0.00;0.62;2.43;1.30;;;26.60;24.50;;;;;;2222213;62;20370;-62
2022/07/28 00:17:42;0.00;0.00;0.62;0.00;0.00;0.62;4.20;1.70;;;26.60;24.60;;;;;;2221886;62;20588;-62
2022/07/28 00:20:29;0.00;0.00;0.62;0.00;0.00;0.62;1.80;1.17;;;26.60;24.60;;;;;;2222467;62;20381;-62
2022/07/28 00:23:14;0.00;0.00;0.62;0.00;0.00;0.62;3.03;1.20;;;26.60;24.60;;;;;;2226035;62;20405;-61
2022/07/28 00:25:59;0.00;0.00;0.62;0.00;0.00;0.62;2.80;1.50;;;26.60;24.60;;;;;;2225855;62;20409;-60
2022/07/28 00:28:44;0.00;0.00;0.62;0.00;0.00;0.62;1.90;1.30;;;26.60;24.60;;;;;;2225731;62;20760;-61
2022/07/28 00:31:29;0.00;0.00;0.62;0.00;0.00;0.62;2.00;1.23;;;26.60;24.60;;;;;;2225799;62;20366;-62
2022/07/28 00:34:14;0.00;0.00;0.62;0.00;0.00;0.62;1.60;0.97;;;26.70;24.70;;;;;;2225951;62;20386;-62
2022/07/28 00:37:01;0.00;0.00;0.62;0.00;0.00;0.62;2.10;1.27;;;26.60;24.60;;;;;;2225973;62;20370;-62
2022/07/28 00:39:45;0.00;0.00;0.62;0.00;0.00;0.62;1.93;1.13;;;26.60;24.60;;;;;;2225775;62;20362;-61
2022/07/28 00:42:30;0.00;0.00;0.62;0.00;0.00;0.62;1.87;1.23;;;26.60;24.60;;;;;;2444609;54;20395;-61
2022/07/28 00:45:15;0.00;0.00;0.62;0.00;0.00;0.62;2.10;1.00;;;26.60;24.70;;;;;;2218161;62;20727;-62
2022/07/28 00:48:00;0.00;0.00;0.62;0.00;0.00;0.62;1.77;1.20;;;26.60;24.70;;;;;;2218047;62;20740;-62
2022/07/28 00:50:44;0.00;0.00;0.62;0.00;0.00;0.62;1.50;1.00;;;26.60;24.70;;;;;;2220224;62;20397;-62
2022/07/28 00:53:30;0.00;0.00;0.62;0.00;0.00;0.62;2.37;1.17;;;26.60;24.70;;;;;;2226254;62;20445;-59
2022/07/28 00:56:15;0.00;0.00;0.62;0.00;0.00;0.62;2.37;1.23;;;26.60;24.70;;;;;;2225858;62;20567;-62
2022/07/28 00:59:01;0.00;0.00;0.62;0.00;0.00;0.62;2.23;0.90;;;26.60;24.70;;;;;;2225766;62;20762;-62
2022/07/28 01:01:47;0.00;0.00;0.62;0.00;0.00;0.62;1.60;1.00;;;26.60;24.70;;;;;;2225556;62;20620;-62
2022/07/28 01:04:32;0.00;0.00;0.62;0.00;0.00;0.62;1.73;1.03;;;26.60;24.70;;;;;;2225776;62;20407;-62
2022/07/28 01:07:31;0.00;0.00;0.62;0.00;0.00;0.62;2.30;1.40;;;26.70;24.70;;;;;;2225978;62;20399;-62
2022/07/28 01:10:29;0.00;0.00;0.62;0.00;0.00;0.62;3.00;1.10;;;26.60;24.70;;;;;;2225219;62;20714;-62
2022/07/28 01:13:25;0.00;0.00;0.62;0.00;0.00;0.62;2.37;1.33;;;26.70;24.70;;;;;;2223973;62;20754;-61
2022/07/28 01:16:10;0.00;0.00;0.62;0.00;0.00;0.62;2.13;1.13;;;26.70;24.70;;;;;;2221776;62;20752;-62
2022/07/28 01:19:03;0.00;0.00;0.62;0.00;0.00;0.62;3.03;1.40;;;26.60;24.70;;;;;;2222398;62;20399;-61
2022/07/28 01:21:49;0.00;0.00;0.62;0.00;0.00;0.62;2.07;1.10;;;26.70;24.70;;;;;;2225469;62;20685;-62
2022/07/28 01:24:48;0.00;0.00;0.62;0.00;0.00;0.62;2.50;1.33;;;26.70;24.70;;;;;;2226341;62;20381;-62
2022/07/28 01:27:51;0.00;0.00;0.62;0.00;0.00;0.62;1.90;1.20;;;26.70;24.80;;;;;;2226355;62;20431;-62
2022/07/28 01:30:42;0.00;0.00;0.62;0.00;0.00;0.62;2.80;1.40;;;26.70;24.80;;;;;;2225586;62;20378;-63
2022/07/28 01:33:36;0.00;0.00;0.62;0.00;0.00;0.62;2.43;1.50;;;26.70;24.80;;;;;;2222361;62;20391;-62
2022/07/28 01:36:25;0.00;0.00;0.62;0.00;0.00;0.62;2.57;1.37;;;26.70;24.80;;;;;;2222855;62;20363;-62
2022/07/28 01:39:12;0.00;0.00;0.62;0.00;0.00;0.62;2.60;1.27;;;26.70;24.80;;;;;;2222319;62;20408;-62
2022/07/28 01:41:58;0.00;0.00;0.62;0.00;0.00;0.62;1.80;1.10;;;26.70;24.80;;;;;;2225528;62;20676;-62
2022/07/28 01:44:47;0.00;0.00;0.62;0.00;0.00;0.62;2.00;1.40;;;26.70;24.80;;;;;;2225562;62;20390;-62
2022/07/28 01:47:34;0.00;0.00;0.62;0.00;0.00;0.62;2.23;1.40;;;26.70;24.80;;;;;;2222153;62;20398;-62
2022/07/28 01:50:22;0.00;0.00;0.62;0.00;0.00;0.62;2.20;1.20;;;26.70;24.80;;;;;;2222374;62;20363;-62
2022/07/28 01:53:09;0.00;0.00;0.62;0.00;0.00;0.62;1.60;1.03;;;26.70;24.80;;;;;;2222363;62;20379;-62
2022/07/28 01:55:55;0.00;0.00;0.62;0.00;0.00;0.62;2.67;1.10;;;26.70;24.80;;;;;;2222363;62;20404;-62
2022/07/28 01:58:42;0.00;0.00;0.62;0.00;0.00;0.62;1.73;1.30;;;26.70;24.80;;;;;;2222605;62;20408;-61
2022/07/28 02:01:30;0.00;0.00;0.62;0.00;0.00;0.62;2.13;1.23;;;26.80;24.80;;;;;;2221753;62;20414;-61
2022/07/28 02:04:18;0.00;0.00;0.62;0.00;0.00;0.62;1.87;1.20;;;26.80;24.80;;;;;;2222403;62;20427;-62
2022/07/28 02:07:06;0.00;0.00;0.62;0.00;0.00;0.62;3.70;1.30;;;26.80;24.80;;;;;;2222500;62;20378;-62
2022/07/28 02:09:53;0.00;0.00;0.62;0.00;0.00;0.62;1.90;1.00;;;26.70;24.70;;;;;;2222290;62;20363;-61
2022/07/28 02:12:39;0.00;0.00;0.62;0.00;0.00;0.62;2.07;1.10;;;26.70;24.70;;;;;;2449652;54;20378;-61
2022/07/28 02:15:25;0.00;0.00;0.62;0.00;0.00;0.62;2.57;1.50;;;26.70;24.70;;;;;;2222274;62;20726;-62
2022/07/28 02:18:11;0.00;0.00;0.62;0.00;0.00;0.62;2.60;1.37;;;26.80;24.80;;;;;;2222657;62;20367;-61
2022/07/28 02:20:58;0.00;0.00;0.62;0.00;0.00;0.62;2.60;1.10;;;26.70;24.70;;;;;;2223778;62;20429;-61
2022/07/28 02:23:47;0.00;0.00;0.62;0.00;0.00;0.62;2.00;1.40;;;26.80;24.80;;;;;;2226163;62;20758;-61
2022/07/28 02:26:36;0.00;0.00;0.62;0.00;0.00;0.62;2.00;1.10;;;26.70;24.70;;;;;;2226336;62;20366;-61
2022/07/28 02:29:25;0.00;0.00;0.62;0.00;0.00;0.62;2.60;1.30;;;26.70;24.70;;;;;;2226223;62;20422;-61
2022/07/28 02:32:18;0.00;0.00;0.62;0.00;0.00;0.62;2.03;1.30;;;26.70;24.70;;;;;;2226165;62;20358;-62
2022/07/28 02:35:09;0.00;0.00;0.62;0.00;0.00;0.62;2.70;1.27;;;26.70;24.70;;;;;;2226389;62;20374;-62
2022/07/28 02:38:00;0.00;0.00;0.62;0.00;0.00;0.62;3.10;1.50;;;26.70;24.60;;;;;;2226132;62;20481;-62
2022/07/28 02:40:48;0.00;0.00;0.62;0.00;0.00;0.62;1.97;1.10;;;26.60;24.50;;;;;;2226052;62;20619;-62
2022/07/28 02:43:37;0.00;0.00;0.62;0.00;0.00;0.62;3.63;1.67;;;26.60;24.50;;;;;;2226114;62;20401;-61
2022/07/28 02:46:25;0.00;0.00;0.62;0.00;0.00;0.62;2.53;1.40;;;26.50;24.40;;;;;;2226223;62;20366;-62
2022/07/28 02:49:16;0.00;0.00;0.62;0.00;0.00;0.62;2.50;1.50;;;26.50;24.40;;;;;;2226276;62;20369;-62
2022/07/28 02:52:06;0.00;0.00;0.62;0.00;0.00;0.62;4.07;1.80;;;26.50;24.40;;;;;;2222846;62;20363;-62
2022/07/28 02:54:55;0.00;0.00;0.62;0.00;0.00;0.62;2.07;1.20;;;26.40;24.30;;;;;;2222383;62;20391;-61
2022/07/28 02:57:42;0.00;0.00;0.62;0.00;0.00;0.62;2.30;1.43;;;26.30;24.40;;;;;;2222335;62;20489;-62
2022/07/28 03:00:28;0.00;0.00;0.62;0.00;0.00;0.62;1.90;1.10;;;26.30;24.50;;;;;;2221892;62;20719;-62
2022/07/28 03:03:13;0.00;0.00;0.62;0.00;0.00;0.62;2.33;1.10;;;26.30;24.50;;;;;;2222273;62;20392;-61
2022/07/28 03:05:58;0.00;0.00;0.62;0.00;0.00;0.62;3.53;1.40;;;26.20;24.60;;;;;;2222213;62;20416;-62
2022/07/28 03:08:43;0.00;0.00;0.62;0.00;0.00;0.62;1.77;1.33;;;26.30;24.60;;;;;;2222113;62;20367;-62
2022/07/28 03:11:29;0.00;0.00;0.62;0.00;0.00;0.62;2.67;1.33;;;26.20;24.60;;;;;;2224296;62;20480;-62
2022/07/28 03:14:14;0.00;0.00;0.62;0.00;0.00;0.62;3.50;1.63;;;26.20;24.60;;;;;;2226370;62;20504;-62
2022/07/28 03:16:59;0.00;0.00;0.62;0.00;0.00;0.62;1.80;1.30;;;26.20;24.70;;;;;;2226138;62;20414;-62
2022/07/28 03:19:44;0.00;0.00;0.62;0.00;0.00;0.62;2.03;1.20;;;26.20;24.70;;;;;;2226138;62;20563;-62
2022/07/28 03:22:29;0.00;0.00;0.62;0.00;0.00;0.62;2.43;1.10;;;26.20;24.70;;;;;;2453842;54;20391;-62
2022/07/28 03:25:20;0.00;0.00;0.62;0.00;0.00;0.62;1.90;1.30;;;26.20;24.80;;;;;;2226027;62;20419;-62
2022/07/28 03:28:12;0.00;0.00;0.62;0.00;0.00;0.62;2.07;1.20;;;26.20;24.80;;;;;;2226077;62;20362;-61
2022/07/28 03:31:04;0.00;0.00;0.62;0.00;0.00;0.62;2.20;1.10;;;26.20;24.80;;;;;;2225960;62;20374;-62
2022/07/28 03:33:49;0.00;0.00;0.62;0.00;0.00;0.62;2.17;1.37;;;26.20;24.80;;;;;;2225829;62;20427;-62
2022/07/28 03:36:38;0.00;0.00;0.62;0.00;0.00;0.62;1.53;1.10;;;26.20;24.80;;;;;;2226175;62;20395;-60
2022/07/28 03:39:24;0.00;0.00;0.62;0.00;0.00;0.62;1.80;1.13;;;26.20;24.80;;;;;;2225710;62;20435;-62
2022/07/28 03:42:10;0.00;0.00;0.62;0.00;0.00;0.62;3.13;1.37;;;26.20;24.80;;;;;;2223369;62;20394;-62
2022/07/28 03:44:56;0.00;0.00;0.62;0.00;0.00;0.62;1.93;1.23;;;26.20;24.90;;;;;;2222124;62;20382;-62
2022/07/28 03:47:49;0.00;0.00;0.62;0.00;0.00;0.62;2.00;1.40;;;26.30;24.90;;;;;;2222137;62;20600;-62
2022/07/28 03:50:35;0.00;0.00;0.62;0.00;0.00;0.62;1.77;1.33;;;26.30;25.40;;;;;;2222071;62;20422;-62
2022/07/28 03:53:25;0.00;0.00;0.62;0.00;0.00;0.62;2.07;1.27;;;26.30;24.90;;;;;;2222078;62;20391;-61
2022/07/28 03:56:09;0.00;0.00;0.62;0.00;0.00;0.62;3.50;1.50;;;26.30;24.90;;;;;;2222069;62;20367;-61
2022/07/28 03:58:54;0.00;0.00;0.62;0.00;0.00;0.62;4.30;1.90;;;26.20;24.80;;;;;;2222025;62;20382;-62
2022/07/28 04:01:40;0.00;0.00;0.62;0.00;0.00;0.62;3.60;1.80;;;26.30;24.80;;;;;;2224534;62;20424;-62
2022/07/28 04:04:25;0.00;0.00;0.62;0.00;0.00;0.62;2.00;1.10;;;26.20;25.30;;;;;;2226057;62;20507;-61
2022/07/28 04:07:10;0.00;0.00;0.62;0.00;0.00;0.62;2.43;1.40;;;26.20;24.80;;;;;;2225756;62;20399;-62
2022/07/28 04:09:55;0.00;0.00;0.62;0.00;0.00;0.62;3.30;1.63;;;26.20;24.80;;;;;;2225823;62;20439;-62
2022/07/28 04:12:50;0.00;0.00;0.62;0.00;0.00;0.62;2.20;1.57;;;26.20;24.80;;;;;;2226166;62;20387;-61
2022/07/28 04:15:35;0.00;0.00;0.62;0.00;0.00;0.62;2.33;1.40;;;26.20;24.90;;;;;;2225846;62;20446;-61
2022/07/28 04:18:21;0.00;0.00;0.62;0.00;0.00;0.62;3.60;2.00;;;26.20;24.90;;;;;;2226017;62;20366;-62
2022/07/28 04:21:06;0.00;0.00;0.62;0.00;0.00;0.62;2.17;1.60;;;26.20;24.90;;;;;;2224938;62;20410;-61
2022/07/28 04:23:51;0.00;0.00;0.62;0.00;0.00;0.62;2.67;1.70;;;26.20;24.90;;;;;;2225723;62;20515;-62
2022/07/28 04:26:35;0.00;0.00;0.62;0.00;0.00;0.62;3.60;2.30;;;26.20;24.90;;;;;;2226063;62;20392;-62
2022/07/28 04:29:21;0.00;0.00;0.62;0.00;0.00;0.62;2.73;1.67;;;26.20;24.90;;;;;;2225701;62;20451;-62
2022/07/28 04:32:06;0.00;0.00;0.62;0.00;0.00;0.62;2.43;1.87;;;26.20;24.90;;;;;;2222178;62;20363;-62
2022/07/28 04:34:52;0.00;0.00;0.62;0.00;0.00;0.62;2.10;1.40;;;26.20;24.90;;;;;;2222205;62;20423;-62
2022/07/28 04:37:37;0.00;0.00;0.62;0.00;0.00;0.62;2.60;1.60;;;26.20;24.90;;;;;;2221863;62;20374;-62
2022/07/28 04:40:22;0.00;0.00;0.62;0.00;0.00;0.62;2.27;1.67;;;26.20;24.90;;;;;;2222075;62;20366;-62
2022/07/28 04:43:09;0.00;0.00;0.62;0.00;0.00;0.62;3.13;2.00;;;26.30;25.00;;;;;;2225866;62;20402;-62
2022/07/28 04:45:53;0.00;0.00;0.62;0.00;0.00;0.62;2.80;2.03;;;26.30;25.00;;;;;;2225795;62;20845;-62
2022/07/28 04:48:38;0.00;0.00;0.62;0.00;0.00;0.62;2.53;1.40;;;26.30;25.00;;;;;;2225946;62;20374;-62
2022/07/28 04:51:24;0.00;0.00;0.62;0.00;0.00;0.62;3.50;1.70;;;26.30;25.00;;;;;;2223219;62;20491;-62
2022/07/28 04:54:08;0.00;0.00;0.62;0.00;0.00;0.62;2.50;1.80;;;26.30;25.00;;;;;;2222002;62;20387;-62
2022/07/28 04:56:53;0.00;0.00;0.62;0.00;0.00;0.62;2.43;1.80;;;26.30;25.00;;;;;;2222052;62;20824;-62
2022/07/28 04:59:37;0.00;0.00;0.62;0.00;0.00;0.62;2.87;1.40;;;26.30;25.60;;;;;;2221787;62;20370;-61
2022/07/28 05:02:22;0.00;0.00;0.62;0.00;0.00;0.62;2.70;1.67;;;26.30;25.00;;;;;;2221856;62;20417;-61
2022/07/28 05:05:08;0.00;0.00;0.62;0.00;0.00;0.62;2.73;1.70;;;26.30;25.00;;;;;;2222422;62;20371;-61
2022/07/28 05:07:55;0.00;0.00;0.62;0.00;0.00;0.62;2.13;1.70;;;26.30;25.00;;;;;;2221865;62;20618;-61
2022/07/28 05:10:39;0.00;0.00;0.62;0.00;0.00;0.62;2.27;1.60;;;26.30;25.00;;;;;;2222802;62;20374;-61
2022/07/28 05:13:24;0.00;0.00;0.62;0.00;0.00;0.62;2.67;1.80;;;26.30;25.10;;;;;;2225663;62;20422;-61
2022/07/28 05:16:09;0.00;0.00;0.62;0.00;0.00;0.62;3.60;1.83;;;26.30;25.10;;;;;;2225831;62;20447;-65
2022/07/28 05:18:53;0.00;0.00;0.62;0.00;0.00;0.62;3.73;2.03;;;26.30;25.10;;;;;;2225758;62;20421;-61
2022/07/28 05:21:38;0.00;0.00;0.62;0.00;0.00;0.62;2.00;1.40;;;26.40;25.10;;;;;;2222889;62;20383;-61
2022/07/28 05:24:24;0.00;0.00;0.62;0.00;0.00;0.62;2.80;1.30;;;26.40;25.10;;;;;;2222006;62;20382;-61
2022/07/28 05:27:11;0.00;0.00;0.62;0.00;0.00;0.62;2.03;1.20;;;26.40;25.20;;;;;;2221746;62;20367;-61
2022/07/28 05:29:55;0.00;0.00;0.62;0.00;0.00;0.62;7.10;1.40;;;26.40;25.20;;;;;;2221900;62;20367;-61
2022/07/28 05:32:40;0.00;0.00;0.62;0.00;0.00;0.62;3.03;1.50;;;26.40;25.20;;;;;;2449179;54;21017;-61
2022/07/28 05:35:26;0.00;0.00;0.62;0.00;0.00;0.62;1.67;1.20;;;26.40;25.10;;;;;;2221803;62;20395;-61
2022/07/28 05:38:11;0.00;0.00;0.62;0.00;0.00;0.62;1.90;0.90;;;26.40;25.10;;;;;;2221905;62;20379;-61
2022/07/28 05:40:59;0.00;0.00;0.62;0.00;0.00;0.62;2.50;1.67;;;26.40;25.10;;;;;;2221414;62;20423;-61
2022/07/28 05:43:43;0.00;0.00;0.62;0.00;0.00;0.62;2.43;1.60;;;26.40;25.10;;;;;;2221723;62;20402;-61
2022/07/28 05:46:28;0.00;0.00;0.62;0.00;0.00;0.62;1.77;1.10;;;26.40;25.10;;;;;;2221781;62;20478;-61
2022/07/28 05:49:13;0.00;0.00;0.62;0.00;0.00;0.62;2.50;1.40;;;26.40;25.20;;;;;;2221831;62;20362;-61
2022/07/28 05:51:58;0.00;0.00;0.62;0.00;0.00;0.62;2.30;1.20;;;26.50;25.20;;;;;;2221756;62;20751;-62
2022/07/28 05:54:42;0.00;0.00;0.62;0.00;0.00;0.62;2.10;1.10;;;26.50;25.20;;;;;;2443937;54;20688;-62
2022/07/28 05:57:28;0.00;0.00;0.62;0.00;0.00;0.62;1.90;1.37;;;26.50;25.20;;;;;;2217763;62;20594;-62
2022/07/28 06:00:16;0.00;0.00;0.62;0.00;0.00;0.62;2.40;1.30;;;26.50;25.20;;;;;;2218037;62;20375;-61
2022/07/28 06:03:02;0.00;0.00;0.62;0.00;0.00;0.62;1.83;1.10;;;26.50;25.20;;;;;;2221969;62;20398;-60
2022/07/28 06:05:47;0.00;0.00;0.62;0.00;0.00;0.62;2.07;1.20;;;26.50;25.20;;;;;;2222405;62;20370;-62
2022/07/28 06:08:32;0.00;0.00;0.62;0.00;0.00;0.62;2.20;1.30;;;26.50;25.20;;;;;;2222353;62;20414;-62
2022/07/28 06:11:17;0.00;0.00;0.62;0.00;0.00;0.62;1.80;1.10;;;26.50;25.20;;;;;;2222422;62;20371;-61
2022/07/28 06:14:03;0.00;0.00;0.62;0.00;0.00;0.62;2.10;1.20;;;26.50;25.20;;;;;;2222353;62;20382;-62
2022/07/28 06:16:49;0.00;0.00;0.62;0.00;0.00;0.62;2.23;1.10;;;26.50;25.20;;;;;;2222404;62;20440;-62
2022/07/28 06:19:34;0.00;0.00;0.62;0.00;0.00;0.62;1.70;1.10;;;26.50;25.20;;;;;;2222483;62;20363;-62
2022/07/28 06:22:19;0.00;0.00;0.62;0.00;0.00;0.62;3.00;1.33;;;26.50;25.20;;;;;;2225751;62;20498;-62
2022/07/28 06:25:04;0.00;0.00;0.62;0.00;0.00;0.62;1.87;1.10;;;26.50;25.20;;;;;;2226463;62;20365;-62
2022/07/28 06:27:52;0.00;0.00;0.62;0.00;0.00;0.62;2.27;1.20;;;26.60;25.20;;;;;;2226247;62;20449;-62
2022/07/28 06:30:38;0.00;0.00;0.62;0.00;0.00;0.62;2.63;1.20;;;26.60;25.30;;;;;;2225913;62;20399;-62
2022/07/28 06:33:23;0.00;0.00;0.62;0.00;0.00;0.62;1.97;1.30;;;26.60;25.30;;;;;;2226445;62;20415;-62
2022/07/28 06:36:07;0.00;0.00;0.62;0.00;0.00;0.62;2.87;1.40;;;26.60;25.20;;;;;;2226227;62;20390;-61
2022/07/28 06:38:52;0.00;0.00;0.62;0.00;0.00;0.62;2.20;1.00;;;26.60;25.30;;;;;;2226037;62;20718;-62
2022/07/28 06:41:40;0.00;0.00;0.62;0.00;0.00;0.62;1.50;1.20;;;26.60;25.30;;;;;;2223344;62;20399;-62
2022/07/28 06:44:25;0.00;0.00;0.62;0.00;0.00;0.62;2.97;1.40;;;26.60;25.30;;;;;;2221749;62;20820;-62
2022/07/28 06:47:12;0.00;0.00;0.62;0.00;0.00;0.62;2.00;1.00;;;26.70;25.30;;;;;;2222410;62;20366;-62
2022/07/28 06:49:57;0.00;0.00;0.62;0.00;0.00;0.62;2.10;1.10;;;26.70;25.30;;;;;;2222254;62;20394;-60
2022/07/28 06:52:41;0.00;0.00;0.62;0.00;0.00;0.62;1.60;0.90;;;26.70;25.30;;;;;;2444916;54;20380;-61
2022/07/28 06:55:27;0.00;0.00;0.62;0.00;0.00;0.62;2.47;1.10;;;26.70;25.30;;;;;;2218612;62;20441;-62
2022/07/28 06:58:11;0.00;0.00;0.62;0.00;0.00;0.62;1.87;1.00;;;26.70;25.30;;;;;;2218408;62;20368;-63
2022/07/28 07:00:56;0.00;0.00;0.62;0.00;0.00;0.62;1.87;1.10;;;26.70;25.30;;;;;;2221038;62;20378;-62
2022/07/28 07:03:42;0.00;0.00;0.62;0.00;0.00;0.62;1.60;1.00;;;26.80;25.30;;;;;;2226401;62;20394;-62
2022/07/28 07:06:27;0.00;0.00;0.62;0.00;0.00;0.62;2.70;1.10;;;26.80;25.30;;;;;;2226081;62;20366;-62
2022/07/28 07:09:12;0.00;0.00;0.62;0.00;0.00;0.62;1.40;0.93;;;26.80;25.30;;;;;;2226315;62;20366;-69
2022/07/28 07:11:57;0.00;0.00;0.62;0.00;0.00;0.62;2.63;1.37;;;26.80;25.30;;;;;;2222856;62;20382;-62
2022/07/28 07:14:41;0.00;0.00;0.62;0.00;0.00;0.62;2.30;1.00;;;26.80;25.30;;;;;;2224464;62;20363;-62
2022/07/28 07:17:26;0.00;0.00;0.62;0.00;0.00;0.62;1.77;0.80;;;26.80;25.30;;;;;;2222337;62;20371;-63
2022/07/28 07:20:13;0.00;0.00;0.62;0.00;0.00;0.62;1.77;1.00;;;26.80;25.30;;;;;;2222058;62;20424;-70
2022/07/28 07:22:58;0.00;0.00;0.62;0.00;0.00;0.62;3.20;1.20;;;26.80;25.30;;;;;;2222273;62;20406;-70
2022/07/28 07:25:43;0.00;0.00;0.62;0.00;0.00;0.62;1.80;1.13;;;26.80;25.30;;;;;;2222595;62;20390;-68
2022/07/28 07:28:27;0.00;0.00;0.62;0.00;0.00;0.62;1.90;1.07;;;26.80;25.30;;;;;;2221916;62;20413;-69
2022/07/28 07:31:12;0.00;0.00;0.62;0.00;0.00;0.62;4.60;1.10;;;26.80;25.30;;;;;;2222050;62;20596;-73
2022/07/28 07:33:57;0.00;0.00;0.62;0.00;0.00;0.62;3.67;1.23;;;26.80;25.30;;;;;;2222125;62;20800;-72
2022/07/28 07:36:43;0.00;0.00;0.62;0.00;0.00;0.62;3.63;1.10;;;26.80;25.30;;;;;;2222090;62;20715;-68
2022/07/28 07:39:28;0.00;0.00;0.62;0.00;0.00;0.62;2.90;1.30;;;26.80;25.20;;;;;;2222126;62;20769;-70
2022/07/28 07:42:12;0.00;0.00;0.62;0.00;0.00;0.62;4.00;1.10;;;26.80;25.20;;;;;;2225592;62;20454;-70
2022/07/28 07:44:57;0.00;0.00;0.62;0.00;0.00;0.62;1.73;1.03;;;26.90;25.20;;;;;;2226094;62;20409;-68
2022/07/28 07:47:42;0.00;0.00;0.62;0.00;0.00;0.62;2.07;1.10;;;26.90;25.20;;;;;;2226312;62;20390;-69
2022/07/28 07:50:27;0.00;0.00;0.62;0.00;0.00;0.62;1.60;0.90;;;26.90;25.20;;;;;;2225734;62;20422;-69
2022/07/28 07:53:13;0.00;0.00;0.62;0.00;0.00;0.62;1.63;0.90;;;26.90;25.10;;;;;;2228390;62;20470;-71
2022/07/28 07:55:57;0.00;0.00;0.62;0.00;0.00;0.62;4.23;1.03;;;26.90;25.10;;;;;;2226049;62;20695;-70
2022/07/28 07:58:42;0.00;0.00;0.62;0.00;0.00;0.62;2.80;1.00;;;26.90;25.10;;;;;;2226045;62;20723;-72
2022/07/28 08:01:27;0.00;0.00;0.62;0.00;0.00;0.62;2.03;1.20;;;26.90;25.00;;;;;;2225994;62;20416;-65
2022/07/28 08:04:12;0.00;0.00;0.62;0.00;0.00;0.62;2.13;1.50;;;26.90;25.00;;;;;;2225994;62;20386;-66
2022/07/28 08:06:57;0.00;0.00;0.62;0.00;0.00;0.62;3.53;1.47;;;26.90;24.90;;;;;;2225900;62;20369;-66
2022/07/28 08:09:43;0.00;0.00;0.62;0.00;0.00;0.62;2.50;1.30;;;26.90;24.80;;;;;;2226099;62;20574;-70
2022/07/28 08:12:28;0.00;0.00;0.62;0.00;0.00;0.62;3.53;1.40;;;26.90;24.60;;;;;;2225877;62;20872;-66
2022/07/28 08:15:13;0.00;0.00;0.62;0.00;0.00;0.62;3.60;1.37;;;26.90;24.50;;;;;;2226073;62;20357;-64
2022/07/28 08:17:57;0.00;0.00;0.62;0.00;0.00;0.62;2.67;1.30;;;26.90;24.50;;;;;;2225847;62;20369;-67
2022/07/28 08:20:42;0.00;0.00;0.62;0.00;0.00;0.62;5.57;2.00;;;26.80;24.30;;;;;;2228010;62;20418;-68
2022/07/28 08:23:27;0.00;0.00;0.62;0.00;0.00;0.62;3.90;1.23;;;26.80;24.30;;;;;;2225809;62;20710;-70
2022/07/28 08:26:13;0.00;0.00;0.62;0.00;0.00;0.62;2.53;1.27;;;26.80;24.30;;;;;;2225753;62;20750;-69
2022/07/28 08:28:58;0.00;0.00;0.62;0.00;0.00;0.62;2.30;1.00;;;26.80;24.40;;;;;;2225840;62;20465;-70
2022/07/28 08:31:43;0.00;0.00;0.62;0.00;0.00;0.62;3.77;1.17;;;26.80;24.50;;;;;;2225806;62;20366;-67
2022/07/28 08:34:27;0.00;0.00;0.62;0.00;0.00;0.62;2.83;1.43;;;26.80;24.40;;;;;;2225977;62;20390;-67
2022/07/28 08:37:12;0.00;0.00;0.62;0.00;0.00;0.62;2.50;1.00;;;26.80;24.90;;;;;;2225811;62;20363;-69
2022/07/28 08:39:57;0.00;0.00;0.62;0.00;0.00;0.62;1.67;1.10;;;26.80;24.40;;;;;;2225858;62;20396;-66
2022/07/28 08:42:51;0.00;0.00;0.62;0.00;0.00;0.62;2.43;1.10;;;26.80;24.40;;;;;;2444565;54;20642;-65
2022/07/28 08:45:39;0.00;0.00;0.62;0.00;0.00;0.62;2.50;1.20;;;26.80;24.30;;;;;;2218242;62;20746;-69
2022/07/28 08:48:26;0.00;0.00;0.62;0.00;0.00;0.62;2.97;1.17;;;26.80;24.20;;;;;;2220407;62;20720;-69
2022/07/28 08:51:11;0.00;0.00;0.62;0.00;0.00;0.62;2.17;1.10;;;26.80;24.20;;;;;;2223308;62;20419;-67
2022/07/28 08:53:57;0.00;0.00;0.62;0.00;0.00;0.62;2.37;1.27;;;26.80;24.20;;;;;;2225992;62;20390;-69
2022/07/28 08:56:42;0.00;0.00;0.62;0.00;0.00;0.62;5.90;1.47;;;26.80;24.20;;;;;;2225354;62;20375;-73
2022/07/28 08:59:30;0.00;0.00;0.62;0.00;0.00;0.62;1.70;1.17;;;26.80;24.20;;;;;;2225689;62;20734;-68
2022/07/28 09:02:15;0.00;0.00;0.62;0.00;0.00;0.62;2.27;1.10;;;26.90;24.30;;;;;;2225606;62;20401;-69
2022/07/28 09:05:02;0.00;0.00;0.62;0.00;0.00;0.62;3.27;1.30;;;26.90;24.30;;;;;;2225781;62;20383;-67
2022/07/28 09:07:49;0.00;0.00;0.62;0.00;0.00;0.62;2.10;1.30;;;26.90;24.30;;;;;;2225833;62;20369;-67
2022/07/28 09:10:34;0.00;0.00;0.62;0.00;0.00;0.62;5.20;1.07;;;26.90;24.30;;;;;;2225596;62;20370;-70
2022/07/28 09:13:19;0.00;0.00;0.62;0.00;0.00;0.62;2.60;1.20;;;26.90;24.20;;;;;;2225783;62;20506;-67
2022/07/28 09:16:06;0.00;0.00;0.62;0.00;0.00;0.62;3.20;1.50;;;26.90;24.20;;;;;;2226089;62;20602;-70
2022/07/28 09:18:50;0.00;0.00;0.62;0.00;0.00;0.62;2.50;1.43;;;26.90;24.20;;;;;;2225798;62;20373;-73
2022/07/28 09:21:35;0.00;0.00;0.62;0.00;0.00;0.62;2.73;0.97;;;26.90;24.00;;;;;;2222276;62;20613;-70
2022/07/28 09:24:36;0.00;0.00;0.62;0.00;0.00;0.62;1.50;1.00;;;26.90;24.10;;;;;;2222066;62;20421;-69
2022/07/28 09:27:21;0.00;0.00;0.62;0.00;0.00;0.62;2.40;1.17;;;26.90;24.00;;;;;;2221819;62;20751;-69
2022/07/28 09:30:08;0.00;0.00;0.62;0.00;0.00;0.62;2.63;1.27;;;26.90;23.90;;;;;;2221715;62;20689;-73
2022/07/28 09:33:19;0.00;0.00;0.62;0.00;0.00;0.62;1.90;1.00;;;26.90;23.80;;;;;;2221756;62;20384;-73
2022/07/28 09:36:13;0.00;0.00;0.62;0.00;0.00;0.62;3.57;1.23;;;26.90;23.70;;;;;;2221310;62;20763;-73
2022/07/28 09:38:58;0.00;0.00;0.62;0.00;0.00;0.62;7.00;1.37;;;26.90;23.70;;;;;;2222732;62;20635;-70
2022/07/28 09:41:49;0.00;0.00;0.62;0.00;0.00;0.62;3.40;1.20;;;26.90;23.70;;;;;;2222285;62;20378;-71
2022/07/28 09:44:34;0.00;0.00;0.62;0.00;0.00;0.62;4.93;1.10;;;26.90;23.70;;;;;;2236577;62;20439;-75
2022/07/28 09:47:23;0.00;0.00;0.62;0.00;0.00;0.62;2.27;1.10;;;26.90;23.80;;;;;;2222522;62;20420;-69
2022/07/28 09:50:19;0.00;0.00;0.62;0.00;0.00;0.62;2.67;1.10;;;26.90;24.40;;;;;;2220756;62;20397;-70
2022/07/28 09:53:23;0.00;0.00;0.62;0.00;0.00;0.62;2.30;1.00;;;26.90;23.80;;;;;;2226283;62;20617;-69
2022/07/28 09:56:09;0.00;0.00;0.62;0.00;0.00;0.62;6.70;1.93;;;26.90;23.80;;;;;;2226366;62;20393;-70
2022/07/28 09:58:58;0.00;0.00;0.62;0.00;0.00;0.62;2.50;1.07;;;26.90;23.60;;;;;;2226353;62;20374;-69
2022/07/28 10:01:54;0.00;0.00;0.62;0.00;0.00;0.62;1.67;1.20;;;26.90;23.60;;;;;;2225895;62;20500;-70
2022/07/28 10:04:40;0.00;0.00;0.62;0.00;0.00;0.62;3.27;1.20;;;26.90;23.60;;;;;;2222780;62;20379;-69
2022/07/28 10:07:28;0.00;0.00;0.62;0.00;0.00;0.62;3.00;1.20;;;26.90;23.40;;;;;;2222339;62;20630;-69
2022/07/28 10:10:18;0.00;0.00;0.62;0.00;0.00;0.62;3.13;1.17;;;26.90;23.50;;;;;;2222227;62;20394;-70
2022/07/28 10:13:07;0.00;0.00;0.62;0.00;0.00;0.62;2.23;1.33;;;26.90;23.50;;;;;;2222526;62;20426;-65
2022/07/28 10:16:11;0.00;0.00;0.62;0.00;0.00;0.62;3.57;0.90;;;26.90;23.50;;;;;;2224787;62;20371;-69
2022/07/28 10:18:58;0.00;0.00;0.62;0.00;0.00;0.62;3.40;1.40;;;26.90;23.60;;;;;;2221968;62;20366;-69
2022/07/28 10:21:44;0.00;0.00;0.62;0.00;0.00;0.62;2.90;1.20;;;26.90;23.60;;;;;;2223968;62;20390;-70
2022/07/28 10:24:36;0.00;0.00;0.62;0.00;0.00;0.62;3.33;1.30;;;26.90;23.60;;;;;;2226028;62;20470;-70
2022/07/28 10:27:23;0.00;0.00;0.62;0.00;0.00;0.62;3.50;1.53;;;26.90;23.60;;;;;;2221743;62;20383;-69
2022/07/28 10:30:10;0.00;0.00;0.62;0.00;0.00;0.62;2.37;1.33;;;26.90;23.50;;;;;;2218373;62;20421;-72
2022/07/28 10:32:58;0.00;0.00;0.62;0.00;0.00;0.62;2.97;1.30;;;26.90;23.50;;;;;;2225440;62;20378;-69
2022/07/28 10:35:47;0.00;0.00;0.62;0.00;0.00;0.62;1.50;0.90;;;26.90;23.50;;;;;;2226324;62;20408;-70
2022/07/28 10:38:34;0.00;0.00;0.62;0.00;0.00;0.62;2.90;1.10;;;26.90;23.60;;;;;;2226186;62;20759;-70
2022/07/28 10:41:22;0.00;0.00;0.62;0.00;0.00;0.62;3.13;1.27;;;26.90;23.60;;;;;;2223844;62;20403;-70
2022/07/28 10:44:12;0.00;0.00;0.62;0.00;0.00;0.62;2.30;1.60;;;26.90;23.50;;;;;;2222354;62;20524;-73
2022/07/28 10:46:57;0.00;0.00;0.62;0.00;0.00;0.62;7.00;1.30;;;26.90;23.30;;;;;;2221776;62;20371;-71
2022/07/28 10:49:43;0.00;0.00;0.62;0.00;0.00;0.62;4.63;1.60;;;26.90;23.30;;;;;;2222036;62;20408;-68
2022/07/28 10:52:29;0.00;0.00;0.62;0.00;0.00;0.62;3.40;1.40;;;26.90;23.30;;;;;;2222381;62;20424;-67
2022/07/28 10:55:22;0.00;0.00;0.62;0.00;0.00;0.62;4.27;1.20;;;26.90;23.30;;;;;;2222268;62;20374;-67
2022/07/28 10:58:18;0.00;0.00;0.62;0.00;0.00;0.62;4.13;1.40;;;26.80;23.20;;;;;;2222314;62;20400;-72